Time;durP1;ratioP1;P1;durP2;ratioP2;P2;SDS_P1;SDS_P2;PMS_P1;PMS_P2;Temp;Humidity;BMP_temperature;BMP_pressure;BME280_temperature;BME280_humidity;BME280_pressure;Samples;Min_cycle;Max_cycle;Signal;HPM_P1;HPM_P2
2021/10/09 00:02:13;;;;;;;6.70;6.10;;;7.90;99.90;;;;;;5051328;28;20208;-63
2021/10/09 00:04:39;;;;;;;7.97;6.97;;;7.90;99.90;;;;;;5050643;27;20221;-62
2021/10/09 00:07:04;;;;;;;7.20;6.50;;;7.90;99.90;;;;;;5051281;28;20182;-63
2021/10/09 00:09:30;;;;;;;8.30;7.07;;;7.80;99.90;;;;;;5049606;28;20217;-63
2021/10/09 00:11:56;;;;;;;6.77;6.07;;;7.80;99.90;;;;;;5051384;28;20530;-63
2021/10/09 00:14:21;;;;;;;8.40;7.53;;;7.80;99.90;;;;;;5051468;28;20173;-63
2021/10/09 00:16:48;;;;;;;5.90;4.93;;;7.80;99.90;;;;;;5050672;28;20244;-63
2021/10/09 00:19:15;;;;;;;6.53;5.93;;;7.70;99.90;;;;;;5051142;28;20451;-63
2021/10/09 00:21:44;;;;;;;7.03;6.30;;;7.80;99.90;;;;;;5051476;28;20176;-63
2021/10/09 00:24:18;;;;;;;5.72;5.22;;;7.70;99.90;;;;;;5051121;28;20246;-63
2021/10/09 00:26:45;;;;;;;7.28;6.20;;;7.70;99.90;;;;;;5050841;28;20199;-64
2021/10/09 00:29:11;;;;;;;5.20;4.70;;;7.70;99.90;;;;;;5050860;28;20532;-64
2021/10/09 00:31:37;;;;;;;7.53;6.77;;;7.60;99.90;;;;;;5050975;28;20185;-64
2021/10/09 00:34:03;;;;;;;7.33;6.67;;;7.60;99.90;;;;;;5051240;28;20457;-66
2021/10/09 00:36:28;;;;;;;7.30;6.47;;;7.60;99.90;;;;;;5051016;28;20173;-64
2021/10/09 00:38:54;;;;;;;7.40;6.37;;;7.50;99.90;;;;;;5048354;27;20211;-61
2021/10/09 00:41:21;;;;;;;6.00;5.43;;;7.50;99.90;;;;;;5051292;28;20515;-62
2021/10/09 00:43:46;;;;;;;9.43;6.32;;;7.50;99.90;;;;;;5050979;28;20669;-64
2021/10/09 00:46:12;;;;;;;6.70;6.10;;;7.40;99.90;;;;;;5050711;28;20225;-64
2021/10/09 00:48:38;;;;;;;8.07;7.27;;;7.40;99.90;;;;;;5049950;28;20230;-64
2021/10/09 00:51:05;;;;;;;6.80;5.40;;;7.40;99.90;;;;;;5051306;28;20414;-64
2021/10/09 00:53:33;;;;;;;7.28;5.75;;;7.30;99.90;;;;;;5051120;28;20416;-64
2021/10/09 00:56:00;;;;;;;7.32;6.32;;;7.30;99.90;;;;;;5050831;28;20183;-64
2021/10/09 00:58:28;;;;;;;8.10;6.10;;;7.20;99.90;;;;;;5050121;28;20172;-64
2021/10/09 01:00:55;;;;;;;10.02;7.90;;;7.20;99.90;;;;;;5050626;28;20180;-63
2021/10/09 01:03:22;;;;;;;6.32;5.68;;;7.10;99.90;;;;;;5049277;28;20670;-64
2021/10/09 01:05:48;;;;;;;9.85;7.07;;;7.00;99.90;;;;;;5050438;28;20220;-64
2021/10/09 01:08:14;;;;;;;7.07;5.78;;;7.00;99.90;;;;;;5050280;28;20222;-64
2021/10/09 01:10:41;;;;;;;9.38;7.00;;;6.90;99.90;;;;;;5049030;28;20185;-62
2021/10/09 01:13:06;;;;;;;11.85;8.13;;;6.90;99.90;;;;;;5050485;28;20166;-62
2021/10/09 01:15:34;;;;;;;9.43;7.70;;;6.80;99.90;;;;;;5049880;28;20170;-62
2021/10/09 01:18:10;;;;;;;6.40;5.80;;;6.80;99.90;;;;;;5050005;28;20174;-62
2021/10/09 01:20:54;;;;;;;7.75;6.65;;;6.80;99.90;;;;;;5050380;28;20214;-63
2021/10/09 01:23:21;;;;;;;11.45;8.48;;;6.70;99.90;;;;;;5050127;28;20187;-62
2021/10/09 01:25:48;;;;;;;8.02;6.30;;;6.70;99.90;;;;;;5039037;28;20180;-62
2021/10/09 01:28:15;;;;;;;7.95;6.80;;;6.70;99.90;;;;;;5049860;28;20165;-62
2021/10/09 01:30:41;;;;;;;8.60;7.03;;;6.70;99.90;;;;;;5050191;28;20522;-63
2021/10/09 01:33:07;;;;;;;7.53;5.10;;;6.70;99.90;;;;;;5050079;28;20193;-63
2021/10/09 01:35:49;;;;;;;7.32;6.68;;;6.60;99.90;;;;;;5049823;28;20168;-62
2021/10/09 01:38:15;;;;;;;6.10;5.50;;;6.60;99.90;;;;;;5049880;28;20237;-63
2021/10/09 01:40:41;;;;;;;8.90;6.22;;;6.50;99.90;;;;;;5049840;28;20205;-63
2021/10/09 01:43:12;;;;;;;9.80;7.00;;;6.50;99.90;;;;;;5050388;28;20521;-63
2021/10/09 01:45:38;;;;;;;7.95;6.80;;;6.40;99.90;;;;;;5048239;28;20204;-63
2021/10/09 01:48:04;;;;;;;7.35;5.47;;;6.40;99.90;;;;;;5049598;28;20689;-63
2021/10/09 01:50:30;;;;;;;6.97;6.27;;;6.40;99.90;;;;;;5050440;28;20199;-63
2021/10/09 01:52:55;;;;;;;10.90;6.97;;;6.30;99.90;;;;;;5053459;28;20400;-63
2021/10/09 01:55:21;;;;;;;9.00;6.83;;;6.30;99.90;;;;;;5053350;28;20187;-65
2021/10/09 01:57:46;;;;;;;8.40;6.80;;;6.30;99.90;;;;;;5052815;28;20171;-64
2021/10/09 02:00:13;;;;;;;11.20;8.30;;;6.30;99.90;;;;;;5053454;28;20190;-63
2021/10/09 02:02:38;;;;;;;9.98;7.80;;;6.30;99.90;;;;;;5053166;28;20228;-63
2021/10/09 02:05:04;;;;;;;11.77;7.47;;;6.20;99.90;;;;;;5053510;28;20196;-63
2021/10/09 02:07:31;;;;;;;8.65;7.20;;;6.20;99.90;;;;;;5053025;28;20165;-64
2021/10/09 02:09:57;;;;;;;9.10;6.55;;;6.20;99.90;;;;;;5052910;28;20271;-63
2021/10/09 02:12:25;;;;;;;11.75;7.78;;;6.20;99.90;;;;;;5053054;28;20170;-63
2021/10/09 02:15:02;;;;;;;10.23;8.50;;;6.20;99.90;;;;;;5053845;28;20225;-63
2021/10/09 02:25:47;;;;;;;10.00;6.18;;;6.10;99.90;;;;;;5053372;28;20219;-63
2021/10/09 02:28:18;;;;;;;7.40;6.43;;;6.00;99.90;;;;;;5052333;28;20196;-63
2021/10/09 02:30:44;;;;;;;8.20;6.38;;;6.00;99.90;;;;;;5051261;28;20192;-63
2021/10/09 02:33:10;;;;;;;8.75;7.07;;;6.00;99.90;;;;;;5052636;28;20175;-63
2021/10/09 02:35:36;;;;;;;6.47;5.47;;;6.00;99.90;;;;;;5052834;28;20185;-63
2021/10/09 02:38:03;;;;;;;10.00;7.75;;;6.00;99.90;;;;;;5052664;28;20200;-63
2021/10/09 02:40:29;;;;;;;10.82;6.55;;;5.90;99.90;;;;;;5052626;28;20209;-64
2021/10/09 02:42:54;;;;;;;8.20;6.80;;;5.90;99.90;;;;;;5052257;28;20177;-63
2021/10/09 02:45:20;;;;;;;8.87;6.80;;;5.90;99.90;;;;;;5052304;28;20217;-63
2021/10/09 02:47:46;;;;;;;15.40;8.23;;;5.90;99.90;;;;;;5052457;28;20171;-67
2021/10/09 02:50:14;;;;;;;13.33;7.80;;;5.80;99.90;;;;;;5052673;28;20191;-63
2021/10/09 02:52:43;;;;;;;12.68;7.38;;;5.80;99.90;;;;;;5052091;28;20253;-64
2021/10/09 02:55:09;;;;;;;9.80;7.43;;;5.90;99.90;;;;;;5052682;28;20227;-63
2021/10/09 02:57:37;;;;;;;8.48;7.07;;;5.80;99.90;;;;;;5052116;28;20520;-63
2021/10/09 03:00:04;;;;;;;6.95;6.35;;;5.90;99.90;;;;;;5051134;28;20695;-63
2021/10/09 03:02:30;;;;;;;8.13;7.20;;;5.90;99.90;;;;;;5051604;28;20173;-63
2021/10/09 03:04:56;;;;;;;7.93;6.17;;;5.80;99.90;;;;;;5052348;28;20234;-64
2021/10/09 03:07:21;;;;;;;6.47;5.87;;;5.80;99.90;;;;;;5051918;28;20181;-64
2021/10/09 03:09:47;;;;;;;11.10;7.20;;;5.70;99.90;;;;;;5052110;27;20232;-63
2021/10/09 03:12:12;;;;;;;10.70;6.97;;;5.70;99.90;;;;;;5052453;28;20178;-64
2021/10/09 03:14:38;;;;;;;9.03;6.50;;;5.70;99.90;;;;;;5052135;28;20166;-63
2021/10/09 03:17:04;;;;;;;7.63;6.40;;;5.70;99.90;;;;;;5051664;28;20201;-63
2021/10/09 03:19:29;;;;;;;10.53;5.63;;;5.70;99.90;;;;;;5052019;28;20217;-63
2021/10/09 03:21:55;;;;;;;7.73;6.47;;;5.60;99.90;;;;;;5052273;28;20253;-63
2021/10/09 03:24:20;;;;;;;6.67;5.73;;;5.50;99.90;;;;;;5052239;28;20219;-63
2021/10/09 03:26:46;;;;;;;8.83;6.10;;;5.50;99.90;;;;;;5051820;28;20662;-64
2021/10/09 03:29:12;;;;;;;8.87;6.00;;;5.50;99.90;;;;;;5050821;27;20190;-64
2021/10/09 03:31:37;;;;;;;7.90;5.87;;;5.40;99.90;;;;;;5051709;28;20531;-63
2021/10/09 03:34:03;;;;;;;7.50;6.13;;;5.40;99.90;;;;;;5051875;28;20186;-63
2021/10/09 03:36:29;;;;;;;7.93;6.53;;;5.40;99.90;;;;;;5050811;28;20184;-63
2021/10/09 03:38:54;;;;;;;8.93;5.80;;;5.40;99.90;;;;;;5051168;28;20235;-64
2021/10/09 03:41:20;;;;;;;9.90;6.97;;;5.30;99.90;;;;;;5051779;28;20452;-65
2021/10/09 03:43:46;;;;;;;7.93;7.13;;;5.30;99.90;;;;;;5051538;28;20254;-63
2021/10/09 03:54:32;;;;;;;9.88;5.20;;;5.20;99.90;;;;;;5113458;28;20656;-63
2021/10/09 03:56:57;;;;;;;7.40;6.70;;;5.20;99.90;;;;;;5112517;28;20290;-63
2021/10/09 03:59:23;;;;;;;10.53;5.93;;;5.20;99.90;;;;;;5112795;28;20697;-64
2021/10/09 04:01:49;;;;;;;7.33;6.50;;;5.10;99.90;;;;;;5113334;28;20583;-62
2021/10/09 04:04:14;;;;;;;7.93;6.10;;;5.10;99.90;;;;;;5096241;28;20298;-63
2021/10/09 04:06:40;;;;;;;7.13;5.27;;;5.10;99.90;;;;;;5112635;28;20228;-63
2021/10/09 04:09:05;;;;;;;8.97;7.60;;;5.10;99.90;;;;;;5112685;28;20719;-63
2021/10/09 04:11:31;;;;;;;8.03;7.13;;;5.10;99.90;;;;;;5112153;28;20254;-63
2021/10/09 04:13:57;;;;;;;8.27;6.23;;;5.10;99.90;;;;;;5094825;28;20183;-63
2021/10/09 04:16:22;;;;;;;6.73;5.83;;;5.10;99.90;;;;;;5112860;28;20190;-63
2021/10/09 04:18:48;;;;;;;7.03;6.37;;;5.00;99.90;;;;;;5112567;28;20199;-63
2021/10/09 04:21:14;;;;;;;11.83;5.43;;;5.00;99.90;;;;;;5095344;28;20180;-63
2021/10/09 04:23:39;;;;;;;8.57;7.37;;;5.00;99.90;;;;;;5053393;28;20663;-63
2021/10/09 04:26:06;;;;;;;7.23;5.13;;;5.00;99.90;;;;;;5050874;28;20183;-63
2021/10/09 04:28:32;;;;;;;6.82;6.15;;;4.90;99.90;;;;;;5050302;28;20218;-63
2021/10/09 04:30:57;;;;;;;8.10;5.77;;;4.90;99.90;;;;;;5050844;28;20714;-63
2021/10/09 04:33:23;;;;;;;8.77;6.03;;;4.90;99.90;;;;;;5051210;28;20238;-64
2021/10/09 04:35:49;;;;;;;8.03;7.20;;;4.90;99.90;;;;;;5051235;28;20191;-63
2021/10/09 04:38:14;;;;;;;6.27;5.17;;;4.90;99.90;;;;;;5050260;27;20226;-65
2021/10/09 04:40:40;;;;;;;8.50;6.60;;;4.90;99.90;;;;;;5050628;28;20250;-64
2021/10/09 04:43:06;;;;;;;6.30;5.25;;;4.80;99.90;;;;;;5050859;28;20242;-64
2021/10/09 04:45:32;;;;;;;7.20;5.43;;;4.80;99.90;;;;;;5051026;27;20210;-63
2021/10/09 04:48:01;;;;;;;8.50;7.17;;;4.90;99.90;;;;;;5050423;28;20181;-63
2021/10/09 04:50:26;;;;;;;6.30;5.72;;;4.90;99.90;;;;;;5050709;28;20427;-64
2021/10/09 04:52:52;;;;;;;8.70;7.33;;;4.80;99.90;;;;;;5050477;28;20178;-64
2021/10/09 04:55:18;;;;;;;12.70;7.90;;;4.80;99.90;;;;;;5049435;27;20213;-63
2021/10/09 04:57:43;;;;;;;9.07;6.20;;;4.90;99.90;;;;;;5050069;28;20170;-63
2021/10/09 05:00:09;;;;;;;5.07;4.57;;;4.90;99.90;;;;;;5050440;28;20589;-63
2021/10/09 05:02:35;;;;;;;7.53;5.80;;;4.80;99.90;;;;;;5050712;28;20169;-64
2021/10/09 05:05:00;;;;;;;7.70;6.07;;;4.80;99.90;;;;;;5050437;28;20320;-64
2021/10/09 05:07:26;;;;;;;8.60;6.20;;;4.80;99.90;;;;;;5049536;28;20180;-64
2021/10/09 05:09:52;;;;;;;10.30;6.83;;;4.80;99.90;;;;;;5050528;27;20687;-64
2021/10/09 05:12:17;;;;;;;7.47;6.53;;;4.80;99.90;;;;;;5050627;27;20524;-64
2021/10/09 05:14:43;;;;;;;5.70;5.20;;;4.80;99.90;;;;;;5050555;27;20169;-64
2021/10/09 05:17:10;;;;;;;8.70;4.85;;;4.80;99.90;;;;;;5049972;28;20253;-64
2021/10/09 05:19:35;;;;;;;5.85;5.32;;;4.80;99.90;;;;;;5049205;28;20918;-64
2021/10/09 05:22:01;;;;;;;6.57;5.73;;;4.80;99.90;;;;;;5049834;28;20178;-64
2021/10/09 05:24:27;;;;;;;6.73;5.30;;;4.80;99.90;;;;;;5048699;28;20288;-64
2021/10/09 05:26:52;;;;;;;9.07;5.50;;;4.80;99.90;;;;;;5049827;28;20650;-62
2021/10/09 05:29:19;;;;;;;6.57;4.83;;;4.80;99.90;;;;;;5048429;28;20593;-62
2021/10/09 05:31:48;;;;;;;9.55;7.35;;;4.80;99.90;;;;;;5050337;28;20166;-65
2021/10/09 05:34:13;;;;;;;5.15;4.68;;;4.70;99.90;;;;;;5050273;28;20168;-63
2021/10/09 05:36:39;;;;;;;8.30;6.00;;;4.80;99.90;;;;;;5048966;28;20642;-61
2021/10/09 05:39:05;;;;;;;7.43;5.67;;;4.80;99.90;;;;;;5049923;27;20211;-62
2021/10/09 05:41:30;;;;;;;9.13;7.23;;;4.70;99.90;;;;;;5049326;27;20169;-62
2021/10/09 05:43:56;;;;;;;5.47;5.00;;;4.80;99.90;;;;;;5050036;28;20193;-62
2021/10/09 05:46:23;;;;;;;6.93;5.77;;;4.80;99.90;;;;;;5049855;28;20248;-64
2021/10/09 05:48:49;;;;;;;10.57;5.78;;;4.80;99.90;;;;;;5049231;28;20196;-63
2021/10/09 05:51:24;;;;;;;8.38;6.05;;;4.80;99.90;;;;;;5049621;28;20166;-63
2021/10/09 05:54:02;;;;;;;10.55;5.85;;;4.80;99.90;;;;;;5050204;28;20161;-62
2021/10/09 07:00:49;;;;;;;40.38;21.30;;;9.30;99.90;;;;;;5049490;28;20224;-69
2021/10/09 07:03:18;;;;;;;16.10;10.23;;;10.00;99.90;;;;;;5052566;28;20193;-65
2021/10/09 07:05:45;;;;;;;11.65;8.23;;;10.80;99.90;;;;;;5052192;28;20688;-67
2021/10/09 07:08:10;;;;;;;8.95;7.95;;;11.40;99.90;;;;;;5051049;28;20174;-66
2021/10/09 07:10:41;;;;;;;7.60;6.83;;;11.80;99.90;;;;;;5051152;28;20198;-65
2021/10/09 07:13:08;;;;;;;7.90;5.90;;;11.90;99.90;;;;;;5051664;28;20418;-68
2021/10/09 07:15:35;;;;;;;5.80;5.30;;;12.20;99.90;;;;;;5051579;28;20419;-68
2021/10/09 07:18:02;;;;;;;9.70;7.40;;;12.70;99.90;;;;;;5051437;28;20419;-67
2021/10/09 07:20:28;;;;;;;9.10;5.90;;;13.30;99.90;;;;;;5051264;28;20490;-65
2021/10/09 07:22:54;;;;;;;6.50;5.77;;;13.80;99.90;;;;;;5051800;28;20563;-68
2021/10/09 07:25:20;;;;;;;5.90;4.93;;;14.30;99.90;;;;;;5052373;28;20390;-68
2021/10/09 07:27:46;;;;;;;6.47;5.57;;;14.80;99.90;;;;;;5051531;28;20192;-69
2021/10/09 07:30:12;;;;;;;7.70;5.87;;;15.50;99.90;;;;;;5049740;28;20525;-66
2021/10/09 07:32:38;;;;;;;5.80;5.33;;;16.20;99.90;;;;;;5052060;28;20165;-68
2021/10/09 07:35:04;;;;;;;5.50;5.00;;;16.70;99.90;;;;;;5051297;28;20438;-65
2021/10/09 07:37:30;;;;;;;5.90;5.40;;;17.30;99.90;;;;;;5050416;28;20181;-67
2021/10/09 07:39:56;;;;;;;4.80;4.33;;;17.80;99.90;;;;;;5050298;28;20996;-66
2021/10/09 07:42:21;;;;;;;6.00;5.40;;;18.20;96.80;;;;;;5050986;28;20205;-67
2021/10/09 07:44:49;;;;;;;7.20;4.40;;;18.40;95.30;;;;;;5051246;28;20250;-67
2021/10/09 07:47:15;;;;;;;5.27;4.80;;;18.60;95.10;;;;;;5035950;28;20166;-67
2021/10/09 07:49:41;;;;;;;5.80;5.20;;;18.80;94.70;;;;;;5058524;27;20451;-66
2021/10/09 07:52:07;;;;;;;6.43;5.30;;;19.10;93.80;;;;;;5059077;27;20775;-66
2021/10/09 07:54:33;;;;;;;6.87;5.80;;;19.40;93.60;;;;;;5088687;27;20175;-64
2021/10/09 07:56:59;;;;;;;6.43;5.20;;;19.90;92.50;;;;;;5118154;27;20178;-64
2021/10/09 07:59:24;;;;;;;7.17;6.10;;;20.20;91.90;;;;;;5050974;27;20228;-65
2021/10/09 08:01:50;;;;;;;6.63;5.80;;;20.60;91.20;;;;;;5051346;28;20199;-67
2021/10/09 08:04:16;;;;;;;6.77;6.17;;;20.90;90.70;;;;;;5051120;28;20203;-66
2021/10/09 08:06:43;;;;;;;6.60;5.97;;;21.20;89.40;;;;;;5050863;28;20389;-65
2021/10/09 08:09:10;;;;;;;7.27;5.90;;;21.20;87.20;;;;;;5050947;28;20443;-66
2021/10/09 08:11:35;;;;;;;8.70;6.70;;;21.40;89.50;;;;;;5050814;28;20415;-66
2021/10/09 08:14:02;;;;;;;6.83;6.13;;;21.90;88.30;;;;;;5048072;28;20390;-65
2021/10/09 08:16:28;;;;;;;7.70;6.47;;;22.50;83.70;;;;;;5050826;28;20214;-66
2021/10/09 08:18:53;;;;;;;7.87;6.93;;;22.60;83.80;;;;;;5049453;27;20440;-66
2021/10/09 08:21:24;;;;;;;8.53;6.80;;;22.70;83.10;;;;;;5049457;27;20169;-67
2021/10/09 08:40:15;;;;;;;6.67;6.03;;;23.60;79.90;;;;;;5050754;28;20499;-65
2021/10/09 08:42:42;;;;;;;7.27;6.57;;;23.80;77.20;;;;;;5050949;27;20419;-66
2021/10/09 08:45:10;;;;;;;8.53;7.63;;;23.80;78.30;;;;;;5050859;28;20454;-66
2021/10/09 08:47:37;;;;;;;8.47;7.30;;;23.80;77.40;;;;;;5049289;28;20462;-67
2021/10/09 08:50:06;;;;;;;8.80;6.83;;;23.80;77.20;;;;;;5050925;27;20410;-67
2021/10/09 08:52:32;;;;;;;12.50;7.30;;;24.10;77.90;;;;;;5050612;27;20424;-66
2021/10/09 08:54:58;;;;;;;7.20;6.50;;;24.60;77.30;;;;;;5049537;28;20485;-66
2021/10/09 08:57:26;;;;;;;7.90;7.10;;;24.80;74.90;;;;;;5050326;28;20450;-67
2021/10/09 09:00:05;;;;;;;6.93;6.33;;;24.80;75.80;;;;;;5050025;27;20519;-65
2021/10/09 09:02:38;;;;;;;7.23;6.53;;;25.10;75.30;;;;;;5050737;27;20408;-67
2021/10/09 09:05:39;;;;;;;11.83;8.57;;;25.30;74.30;;;;;;5050625;27;20789;-67
2021/10/09 09:26:20;;;;;;;8.03;7.40;;;25.20;70.50;;;;;;5008630;28;20465;-66
2021/10/09 09:31:10;;;;;;;8.27;7.50;;;25.30;71.00;;;;;;5050504;28;20469;-66
2021/10/09 09:41:24;;;;;;;10.27;7.17;;;24.40;73.50;;;;;;5050131;28;20386;-65
2021/10/09 09:43:52;;;;;;;8.67;6.53;;;24.40;73.30;;;;;;5048750;28;20825;-67
2021/10/09 09:46:20;;;;;;;7.30;6.63;;;24.50;72.90;;;;;;5050027;28;20408;-66
2021/10/09 09:48:47;;;;;;;8.30;7.00;;;24.60;73.10;;;;;;5049620;28;20383;-65
2021/10/09 09:51:15;;;;;;;10.50;7.27;;;24.40;72.10;;;;;;5050281;28;20383;-66
2021/10/09 09:53:43;;;;;;;10.27;7.70;;;24.00;73.00;;;;;;5050097;28;20460;-67
2021/10/09 09:56:10;;;;;;;8.47;7.30;;;24.00;73.30;;;;;;5048577;28;20503;-67
2021/10/09 09:58:38;;;;;;;8.70;6.80;;;24.10;74.30;;;;;;5049430;28;20468;-67
2021/10/09 10:01:07;;;;;;;9.23;6.80;;;23.80;75.10;;;;;;5049706;28;20439;-67
2021/10/09 10:03:32;;;;;;;7.70;6.83;;;24.10;74.20;;;;;;5049563;28;20451;-67
2021/10/09 10:05:58;;;;;;;7.30;6.60;;;24.40;74.80;;;;;;5049916;27;20404;-66
2021/10/09 10:08:26;;;;;;;7.77;6.97;;;24.70;75.00;;;;;;5048167;28;20222;-66
2021/10/09 10:10:55;;;;;;;7.87;6.83;;;24.80;72.70;;;;;;5049651;28;20939;-67
2021/10/09 10:13:23;;;;;;;6.50;5.80;;;24.70;72.50;;;;;;5052047;28;20548;-67
2021/10/09 10:15:53;;;;;;;6.33;5.70;;;24.80;72.80;;;;;;5053467;28;20412;-65
2021/10/09 10:18:43;;;;;;;6.20;5.57;;;24.70;70.40;;;;;;5052732;28;20762;-65
2021/10/09 10:21:13;;;;;;;6.70;5.30;;;24.60;68.80;;;;;;5053152;28;20400;-66
2021/10/09 10:23:44;;;;;;;7.30;6.60;;;24.50;70.20;;;;;;5051717;28;20451;-66
2021/10/09 10:26:19;;;;;;;7.73;6.60;;;24.50;69.90;;;;;;5053361;28;20885;-67
2021/10/09 10:28:45;;;;;;;7.30;5.90;;;24.60;70.30;;;;;;5052643;28;20378;-66
2021/10/09 10:31:11;;;;;;;5.83;5.33;;;24.40;69.30;;;;;;5053321;28;20755;-67
2021/10/09 10:33:42;;;;;;;10.00;5.33;;;24.20;68.70;;;;;;5052816;28;20421;-66
2021/10/09 10:36:11;;;;;;;4.90;4.50;;;23.70;68.70;;;;;;5052905;28;20216;-67
2021/10/09 10:38:47;;;;;;;7.07;6.10;;;23.20;71.10;;;;;;5052248;28;20763;-66
2021/10/09 10:41:17;;;;;;;6.63;5.10;;;23.20;71.60;;;;;;5051349;28;20404;-66
2021/10/09 10:43:47;;;;;;;7.07;5.93;;;23.00;71.90;;;;;;5052306;28;20479;-66
2021/10/09 10:54:32;;;;;;;7.60;5.43;;;22.40;74.10;;;;;;5052782;28;20423;-66
2021/10/09 11:00:02;;;;;;;6.20;5.60;;;22.10;74.10;;;;;;5052492;28;20401;-66
2021/10/09 11:02:30;;;;;;;6.03;5.20;;;21.80;75.40;;;;;;5052203;28;20300;-66
2021/10/09 11:05:00;;;;;;;5.53;4.93;;;21.30;76.10;;;;;;5052105;28;20943;-66
2021/10/09 11:07:35;;;;;;;5.60;4.90;;;20.80;76.20;;;;;;5052060;28;20411;-66
2021/10/09 11:10:06;;;;;;;7.77;5.10;;;20.30;77.20;;;;;;5052213;28;20428;-65
2021/10/09 11:12:34;;;;;;;10.00;6.80;;;19.70;80.00;;;;;;5052300;28;20876;-65
2021/10/09 11:15:08;;;;;;;6.60;5.27;;;19.20;81.60;;;;;;5052565;28;20412;-65
2021/10/09 11:17:36;;;;;;;6.50;5.60;;;18.80;82.40;;;;;;5051988;28;20374;-65
2021/10/09 11:20:04;;;;;;;7.00;4.73;;;18.50;83.10;;;;;;5052171;28;20399;-64
2021/10/09 11:22:45;;;;;;;7.07;5.80;;;18.10;84.40;;;;;;5051838;28;20404;-65
2021/10/09 11:25:21;;;;;;;5.50;4.87;;;17.70;85.60;;;;;;5052060;28;20605;-66
2021/10/09 11:27:47;;;;;;;4.90;4.33;;;17.60;86.90;;;;;;5051794;28;20401;-65
2021/10/09 11:30:13;;;;;;;8.37;5.37;;;17.40;87.30;;;;;;5052021;28;20548;-67
2021/10/09 11:32:40;;;;;;;6.00;5.40;;;17.30;88.30;;;;;;5051749;28;20179;-67
2021/10/09 11:35:08;;;;;;;6.60;5.57;;;17.20;89.70;;;;;;5051832;28;20179;-67
2021/10/09 11:37:44;;;;;;;5.33;4.77;;;17.10;90.00;;;;;;5051505;28;20409;-66
2021/10/09 11:40:10;;;;;;;5.63;4.70;;;17.10;90.00;;;;;;5051716;28;20448;-65
2021/10/09 11:42:50;;;;;;;6.57;5.50;;;17.20;89.10;;;;;;5051723;28;20775;-67
2021/10/09 11:53:39;;;;;;;9.20;5.63;;;17.00;90.60;;;;;;5051721;28;20781;-66
2021/10/09 11:56:08;;;;;;;7.23;5.37;;;16.90;90.90;;;;;;5051746;28;20403;-65
2021/10/09 11:58:57;;;;;;;7.47;5.03;;;16.80;91.00;;;;;;5050112;28;20889;-67
2021/10/09 12:01:25;;;;;;;5.77;4.60;;;16.80;91.60;;;;;;5051558;28;20401;-66
2021/10/09 12:03:50;;;;;;;5.83;4.77;;;16.90;91.20;;;;;;5051461;28;20528;-67
2021/10/09 12:06:16;;;;;;;5.33;4.80;;;17.00;91.00;;;;;;5051548;28;20436;-67
2021/10/09 12:08:54;;;;;;;7.47;6.77;;;17.00;91.00;;;;;;5051190;28;20166;-68
2021/10/09 12:11:19;;;;;;;4.30;3.90;;;17.10;91.10;;;;;;5033794;28;20487;-67
2021/10/09 12:13:49;;;;;;;9.23;4.87;;;17.10;90.90;;;;;;5051110;28;20504;-66
2021/10/09 12:16:16;;;;;;;5.77;4.30;;;17.10;90.20;;;;;;5051247;28;20622;-67
2021/10/09 12:18:56;;;;;;;5.67;4.90;;;17.10;90.60;;;;;;5050769;28;20462;-64
2021/10/09 12:21:31;;;;;;;6.50;5.13;;;17.20;90.60;;;;;;5049943;28;20469;-65
2021/10/09 12:23:57;;;;;;;7.30;4.33;;;17.20;89.60;;;;;;5051186;28;20929;-67
2021/10/09 12:26:25;;;;;;;4.50;3.83;;;17.10;89.00;;;;;;5051317;28;20377;-67
2021/10/09 12:29:11;;;;;;;6.03;5.17;;;17.20;89.80;;;;;;5050720;28;20749;-66
2021/10/09 12:31:43;;;;;;;5.33;4.50;;;17.20;90.00;;;;;;5051021;28;20402;-65
2021/10/09 12:34:32;;;;;;;5.17;4.67;;;17.20;90.00;;;;;;5050461;28;20398;-66
2021/10/09 12:37:18;;;;;;;8.07;5.23;;;17.20;90.10;;;;;;5050772;28;20382;-66
2021/10/09 12:39:46;;;;;;;6.87;5.40;;;17.30;90.20;;;;;;5050904;28;20444;-66
2021/10/09 12:42:13;;;;;;;6.07;5.47;;;17.30;90.00;;;;;;5051349;28;20448;-66
2021/10/09 12:44:39;;;;;;;6.10;4.27;;;17.30;89.40;;;;;;5050946;28;20456;-66
2021/10/09 12:47:05;;;;;;;4.47;4.07;;;17.30;89.70;;;;;;5050419;28;20743;-67
2021/10/09 12:49:31;;;;;;;5.80;4.40;;;17.30;89.70;;;;;;5050683;28;20431;-66
2021/10/09 12:51:57;;;;;;;5.50;4.57;;;17.30;88.50;;;;;;5050666;28;20221;-66
2021/10/09 12:54:24;;;;;;;5.80;4.67;;;17.20;87.80;;;;;;5050595;28;20260;-66
2021/10/09 12:56:50;;;;;;;5.37;4.67;;;17.20;89.30;;;;;;5050543;28;20193;-67
2021/10/09 12:59:19;;;;;;;5.13;4.30;;;17.20;88.10;;;;;;5050646;28;20480;-68
2021/10/09 13:01:46;;;;;;;6.37;4.77;;;17.10;88.30;;;;;;5049249;28;20662;-64
2021/10/09 13:04:12;;;;;;;6.10;4.57;;;17.10;88.60;;;;;;5050449;28;20868;-67
2021/10/09 13:06:37;;;;;;;4.93;4.43;;;17.00;89.10;;;;;;5050607;28;20519;-66
2021/10/09 13:09:03;;;;;;;5.47;4.40;;;17.10;88.90;;;;;;5050489;28;20489;-67
2021/10/09 13:11:33;;;;;;;4.23;3.80;;;17.10;89.50;;;;;;5050382;28;20174;-65
2021/10/09 13:13:58;;;;;;;5.10;4.40;;;17.10;89.10;;;;;;5049071;28;20226;-65
2021/10/09 13:16:24;;;;;;;5.37;4.50;;;17.10;88.90;;;;;;5050283;28;20405;-66
2021/10/09 13:18:50;;;;;;;5.13;4.63;;;17.10;88.10;;;;;;5049812;28;20268;-67
2021/10/09 13:21:15;;;;;;;6.70;4.30;;;17.00;88.40;;;;;;5050361;28;20173;-67
2021/10/09 13:23:41;;;;;;;4.87;4.37;;;17.00;88.50;;;;;;5050391;28;20607;-67
2021/10/09 13:26:07;;;;;;;6.40;4.20;;;17.00;87.40;;;;;;5050433;28;20174;-66
2021/10/09 13:28:34;;;;;;;5.27;4.20;;;17.00;87.70;;;;;;5049761;28;20170;-66
2021/10/09 13:31:00;;;;;;;5.90;4.70;;;16.90;88.50;;;;;;5049104;28;20421;-65
2021/10/09 13:33:26;;;;;;;7.77;4.30;;;16.90;88.20;;;;;;5050092;28;20422;-66
2021/10/09 13:35:51;;;;;;;6.57;4.83;;;16.80;88.20;;;;;;5050171;28;20261;-66
2021/10/09 13:38:17;;;;;;;5.13;4.40;;;16.80;89.00;;;;;;5049818;28;20169;-67
2021/10/09 13:40:43;;;;;;;5.73;4.90;;;16.80;89.90;;;;;;5049953;28;20210;-66
2021/10/09 13:43:12;;;;;;;8.27;3.60;;;16.80;89.60;;;;;;5049924;28;20246;-67
2021/10/09 13:45:45;;;;;;;5.67;4.60;;;16.80;89.40;;;;;;5051157;28;20398;-67
2021/10/09 13:48:11;;;;;;;5.20;4.10;;;16.70;89.90;;;;;;5056301;28;20394;-66
2021/10/09 13:50:43;;;;;;;6.30;5.17;;;16.70;90.00;;;;;;5056623;28;20415;-66
2021/10/09 13:53:10;;;;;;;5.60;5.10;;;16.70;89.70;;;;;;5056706;28;20391;-66
2021/10/09 13:55:36;;;;;;;6.60;4.67;;;16.70;90.10;;;;;;5055600;28;20415;-67
2021/10/09 13:58:02;;;;;;;4.63;4.07;;;16.70;89.90;;;;;;5056088;28;20421;-67
2021/10/09 14:00:28;;;;;;;7.20;4.93;;;16.80;89.90;;;;;;5056275;28;20411;-67
2021/10/09 14:02:53;;;;;;;8.30;5.03;;;16.70;90.40;;;;;;5056694;28;20386;-66
2021/10/09 14:05:19;;;;;;;5.50;5.00;;;16.80;90.00;;;;;;5056460;28;20201;-65
2021/10/09 14:07:44;;;;;;;7.00;4.77;;;16.80;90.00;;;;;;5055972;28;20267;-65
2021/10/09 14:10:10;;;;;;;6.50;4.20;;;16.70;90.00;;;;;;5056183;28;20215;-66
2021/10/09 14:12:36;;;;;;;6.30;4.10;;;16.70;90.10;;;;;;5056140;28;20180;-64
2021/10/09 14:15:05;;;;;;;6.37;5.00;;;16.70;90.40;;;;;;5055910;28;20173;-67
2021/10/09 14:17:31;;;;;;;7.33;4.20;;;16.70;90.30;;;;;;5055825;28;20170;-66
2021/10/09 14:19:58;;;;;;;5.43;4.70;;;16.70;90.70;;;;;;5056269;28;20457;-65
2021/10/09 14:22:24;;;;;;;6.47;4.20;;;16.70;90.70;;;;;;5056457;28;20509;-66
2021/10/09 14:24:50;;;;;;;7.13;4.13;;;16.80;90.30;;;;;;5054881;28;20553;-66
2021/10/09 14:27:15;;;;;;;4.80;4.37;;;16.80;90.00;;;;;;5055746;28;20309;-66
2021/10/09 14:29:41;;;;;;;5.40;4.20;;;16.90;89.50;;;;;;5055993;28;20491;-65
2021/10/09 14:32:07;;;;;;;7.27;4.40;;;16.90;90.00;;;;;;5056399;28;20230;-66
2021/10/09 14:34:32;;;;;;;5.43;4.37;;;16.80;90.00;;;;;;5056018;28;20636;-66
2021/10/09 14:36:58;;;;;;;5.50;4.03;;;16.80;90.00;;;;;;5055681;28;20631;-65
2021/10/09 14:39:26;;;;;;;4.17;3.77;;;16.80;88.70;;;;;;5056062;28;20316;-66
2021/10/09 14:41:52;;;;;;;6.17;4.30;;;16.80;89.00;;;;;;5055970;28;20170;-66
2021/10/09 14:44:17;;;;;;;3.93;3.53;;;16.80;89.50;;;;;;5054744;28;20961;-66
2021/10/09 14:49:22;;;;;;;5.13;4.47;;;16.70;89.50;;;;;;5056266;28;20193;-66
2021/10/09 14:51:56;;;;;;;10.10;4.33;;;16.70;90.10;;;;;;5056087;28;20443;-66
2021/10/09 15:18:27;;;;;;;6.60;3.50;;;16.70;86.30;;;;;;5051602;28;20478;-70
2021/10/09 15:20:54;;;;;;;4.10;3.70;;;16.60;86.60;;;;;;5052003;28;20510;-72
2021/10/09 15:23:21;;;;;;;4.20;3.63;;;16.60;86.20;;;;;;5052060;28;20176;-72
2021/10/09 15:25:47;;;;;;;3.30;2.90;;;16.60;86.20;;;;;;5052149;28;20438;-71
2021/10/09 15:28:17;;;;;;;8.13;3.50;;;16.50;85.60;;;;;;5051761;28;20834;-72
2021/10/09 15:30:44;;;;;;;4.40;3.80;;;16.50;85.50;;;;;;5051727;28;20446;-71
2021/10/09 15:33:09;;;;;;;3.83;3.30;;;16.50;85.50;;;;;;5052018;28;20412;-71
2021/10/09 15:35:37;;;;;;;5.17;3.80;;;16.50;85.40;;;;;;5051003;27;20435;-71
2021/10/09 15:38:04;;;;;;;4.73;3.50;;;16.40;85.70;;;;;;5051449;28;20184;-72
2021/10/09 15:40:30;;;;;;;5.20;3.70;;;16.40;85.70;;;;;;5051373;28;20486;-71
2021/10/09 15:42:55;;;;;;;3.33;3.03;;;16.40;87.40;;;;;;5050341;28;20833;-67
2021/10/09 15:45:22;;;;;;;4.93;3.97;;;16.40;86.10;;;;;;5052010;28;20655;-67